createdAt,value
2023-05-23T00:02:13.790Z,100176.00
2023-05-23T00:04:43.157Z,100172.00
2023-05-23T00:07:11.736Z,100172.00
2023-05-23T00:09:39.831Z,100175.00
2023-05-23T00:12:08.237Z,100173.00
2023-05-23T00:14:36.353Z,100179.00
2023-05-23T00:17:05.666Z,100161.00
2023-05-23T00:19:36.753Z,100159.00
2023-05-23T00:22:05.800Z,100152.00
2023-05-23T00:24:33.788Z,100144.00
2023-05-23T00:27:02.409Z,100157.00
2023-05-23T00:29:30.642Z,100160.00
2023-05-23T00:31:58.894Z,100161.00
2023-05-23T00:34:28.189Z,100156.00
2023-05-23T00:36:56.037Z,100151.00
2023-05-23T00:39:23.971Z,100157.00
2023-05-23T00:41:53.295Z,100155.00
2023-05-23T00:44:22.571Z,100165.00
2023-05-23T00:46:54.324Z,100159.00
2023-05-23T00:49:23.236Z,100158.00
2023-05-23T00:51:52.340Z,100166.00
2023-05-23T00:54:25.125Z,100161.00
2023-05-23T00:56:53.691Z,100165.00
2023-05-23T00:59:23.154Z,100165.00
2023-05-23T01:01:53.222Z,100168.00
2023-05-23T01:04:21.789Z,100174.00
2023-05-23T01:06:49.911Z,100169.00
2023-05-23T01:09:18.972Z,100169.00
2023-05-23T01:11:58.815Z,100177.00
2023-05-23T01:14:39.270Z,100172.00
2023-05-23T01:17:25.175Z,100172.00
2023-05-23T01:20:01.512Z,100170.00
2023-05-23T01:23:01.733Z,100172.00
2023-05-23T01:25:58.600Z,100182.00
2023-05-23T01:28:34.432Z,100174.00
2023-05-23T01:31:04.416Z,100182.00
2023-05-23T01:33:33.689Z,100187.00
2023-05-23T01:36:06.169Z,100188.00
2023-05-23T01:38:34.391Z,100187.00
2023-05-23T01:41:02.262Z,100195.00
2023-05-23T01:43:30.462Z,100186.00
2023-05-23T01:45:59.116Z,100195.00
2023-05-23T01:48:28.320Z,100197.00
2023-05-23T01:50:57.456Z,100188.00
2023-05-23T01:53:26.694Z,100187.00
2023-05-23T01:55:54.832Z,100183.00
2023-05-23T01:58:23.159Z,100183.00
2023-05-23T02:00:51.255Z,100182.00
2023-05-23T02:03:19.650Z,100180.00
2023-05-23T02:05:47.996Z,100174.00
2023-05-23T02:08:16.166Z,100181.00
2023-05-23T02:10:44.196Z,100183.00
2023-05-23T02:13:12.183Z,100181.00
2023-05-23T02:15:40.529Z,100182.00
2023-05-23T02:18:09.941Z,100174.00
2023-05-23T02:20:42.808Z,100175.00
2023-05-23T02:23:11.350Z,100175.00
2023-05-23T02:25:39.893Z,100178.00
2023-05-23T02:28:08.175Z,100175.00
2023-05-23T02:30:36.278Z,100168.00
2023-05-23T02:33:08.581Z,100173.00
2023-05-23T02:35:36.963Z,100176.00
2023-05-23T02:38:05.092Z,100186.00
2023-05-23T02:40:33.137Z,100167.00
2023-05-23T02:43:02.625Z,100181.00
2023-05-23T02:45:34.864Z,100177.00
2023-05-23T02:48:02.990Z,100174.00
2023-05-23T02:50:31.739Z,100176.00
2023-05-23T02:52:59.792Z,100180.00
2023-05-23T02:55:28.138Z,100187.00
2023-05-23T02:57:57.083Z,100179.00
2023-05-23T03:00:26.550Z,100183.00
2023-05-23T03:02:57.675Z,100183.00
2023-05-23T03:05:25.996Z,100183.00
2023-05-23T03:07:54.999Z,100200.00
2023-05-23T03:10:23.452Z,100202.00
2023-05-23T03:12:51.937Z,100195.00
2023-05-23T03:15:20.132Z,100197.00
2023-05-23T03:17:49.007Z,100202.00
2023-05-23T03:20:17.984Z,100210.00
2023-05-23T03:22:46.143Z,100208.00
2023-05-23T03:25:15.691Z,100204.00
2023-05-23T03:27:43.798Z,100213.00
2023-05-23T03:30:12.260Z,100213.00
2023-05-23T03:32:40.489Z,100219.00
2023-05-23T03:35:09.028Z,100226.00
2023-05-23T03:37:37.122Z,100230.00
2023-05-23T03:40:05.764Z,100226.00
2023-05-23T03:42:33.872Z,100227.00
2023-05-23T03:45:02.112Z,100231.00
2023-05-23T03:47:30.417Z,100231.00
2023-05-23T03:49:59.980Z,100224.00
2023-05-23T03:52:29.293Z,100229.00
2023-05-23T03:54:57.730Z,100229.00
2023-05-23T03:57:25.873Z,100236.00
2023-05-23T03:59:54.306Z,100238.00
2023-05-23T04:03:15.960Z,100235.00
2023-05-23T04:05:44.548Z,100239.00
2023-05-23T04:08:13.462Z,100232.00
2023-05-23T04:10:41.572Z,100249.00
2023-05-23T04:13:09.953Z,100240.00
2023-05-23T04:15:40.291Z,100247.00
2023-05-23T04:18:12.347Z,100250.00
2023-05-23T04:20:40.737Z,100241.00
2023-05-23T04:23:08.991Z,100244.00
2023-05-23T04:25:43.474Z,100245.00
2023-05-23T04:28:22.172Z,100254.00
2023-05-23T04:30:50.492Z,100257.00
2023-05-23T04:33:22.365Z,100257.00
2023-05-23T04:35:51.447Z,100253.00
2023-05-23T04:38:22.357Z,100261.00
2023-05-23T04:40:52.915Z,100267.00
2023-05-23T04:43:42.936Z,100270.00
2023-05-23T04:46:26.931Z,100268.00
2023-05-23T04:49:34.506Z,100268.00
2023-05-23T04:52:03.185Z,100263.00
2023-05-23T04:54:33.516Z,100256.00
2023-05-23T04:57:05.100Z,100258.00
2023-05-23T04:59:34.536Z,100252.00
2023-05-23T05:02:04.055Z,100257.00
2023-05-23T05:04:32.282Z,100258.00
2023-05-23T05:07:00.558Z,100256.00
2023-05-23T05:09:29.308Z,100255.00
2023-05-23T05:11:58.162Z,100257.00
2023-05-23T05:14:27.486Z,100265.00
2023-05-23T05:16:57.992Z,100252.00
2023-05-23T05:19:33.369Z,100251.00
2023-05-23T05:22:01.938Z,100259.00
2023-05-23T05:24:33.041Z,100259.00
2023-05-23T05:27:01.220Z,100263.00
2023-05-23T05:29:29.546Z,100265.00
2023-05-23T05:31:58.200Z,100257.00
2023-05-23T05:34:27.311Z,100257.00
2023-05-23T05:36:57.194Z,100259.00
2023-05-23T05:39:26.844Z,100247.00
2023-05-23T05:41:56.553Z,100258.00
2023-05-23T05:44:25.028Z,100262.00
2023-05-23T05:46:53.086Z,100258.00
2023-05-23T05:49:21.431Z,100266.00
2023-05-23T05:51:49.721Z,100259.00
2023-05-23T05:54:19.220Z,100264.00
2023-05-23T05:56:48.531Z,100257.00
2023-05-23T05:59:17.851Z,100255.00
2023-05-23T06:01:45.793Z,100263.00
2023-05-23T06:04:15.031Z,100260.00
2023-05-23T06:06:43.656Z,100258.00
2023-05-23T06:09:11.936Z,100255.00
2023-05-23T06:11:41.263Z,100254.00
2023-05-23T06:14:09.913Z,100256.00
2023-05-23T06:16:42.114Z,100256.00
2023-05-23T06:19:10.145Z,100249.00
2023-05-23T06:21:40.159Z,100254.00
2023-05-23T06:24:10.836Z,100249.00
2023-05-23T06:26:39.215Z,100253.00
2023-05-23T06:29:12.953Z,100258.00
2023-05-23T06:31:41.190Z,100257.00
2023-05-23T06:34:09.240Z,100252.00
2023-05-23T06:36:37.176Z,100256.00
2023-05-23T06:39:05.198Z,100259.00
2023-05-23T06:41:34.457Z,100256.00
2023-05-23T06:44:02.495Z,100258.00
2023-05-23T06:46:33.112Z,100263.00
2023-05-23T06:49:13.866Z,100261.00
2023-05-23T06:51:44.397Z,100259.00
2023-05-23T06:54:12.859Z,100261.00
2023-05-23T06:56:41.373Z,100254.00
2023-05-23T06:59:09.924Z,100260.00
2023-05-23T07:01:38.321Z,100259.00
2023-05-23T07:04:06.960Z,100258.00
2023-05-23T07:06:37.030Z,100262.00
2023-05-23T07:09:06.754Z,100262.00
2023-05-23T07:11:35.784Z,100264.00
2023-05-23T07:14:03.696Z,100263.00
2023-05-23T07:16:37.944Z,100264.00
2023-05-23T07:19:08.326Z,100262.00
2023-05-23T07:21:43.164Z,100264.00
2023-05-23T07:24:12.266Z,100260.00
2023-05-23T07:26:40.354Z,100259.00
2023-05-23T07:29:08.612Z,100266.00
2023-05-23T07:31:37.973Z,100267.00
2023-05-23T07:34:06.374Z,100269.00
2023-05-23T07:36:45.807Z,100267.00
2023-05-23T07:39:15.809Z,100259.00
2023-05-23T07:41:43.740Z,100262.00
2023-05-23T07:44:12.432Z,100255.00
2023-05-23T07:46:40.668Z,100263.00
2023-05-23T07:49:08.691Z,100262.00
2023-05-23T07:51:39.213Z,100254.00
2023-05-23T07:54:08.070Z,100256.00
2023-05-23T07:56:38.692Z,100260.00
2023-05-23T07:59:09.178Z,100263.00
2023-05-23T08:01:37.735Z,100260.00
2023-05-23T08:04:08.963Z,100269.00
2023-05-23T08:07:03.654Z,100265.00
2023-05-23T08:09:43.597Z,100277.00
2023-05-23T08:12:15.659Z,100281.00
2023-05-23T08:14:51.238Z,100276.00
2023-05-23T08:17:25.589Z,100271.00
2023-05-23T08:19:54.871Z,100278.00
2023-05-23T08:22:24.080Z,100277.00
2023-05-23T08:24:52.675Z,100280.00
2023-05-23T08:27:21.645Z,100285.00
2023-05-23T08:29:55.962Z,100293.00
2023-05-23T08:32:27.129Z,100291.00
2023-05-23T08:34:56.196Z,100295.00
2023-05-23T08:37:24.527Z,100295.00
2023-05-23T08:39:53.128Z,100301.00
2023-05-23T08:42:43.665Z,100298.00
2023-05-23T08:45:14.199Z,100308.00
2023-05-23T08:47:46.396Z,100309.00
2023-05-23T08:50:21.147Z,100324.00
2023-05-23T08:52:56.016Z,100320.00
2023-05-23T08:55:29.980Z,100324.00
2023-05-23T08:58:01.082Z,100324.00
2023-05-23T09:00:42.320Z,100322.00
2023-05-23T09:03:12.696Z,100336.00
2023-05-23T09:06:04.011Z,100336.00
2023-05-23T09:08:32.766Z,100340.00
2023-05-23T09:11:03.458Z,100333.00
2023-05-23T09:13:35.085Z,100349.00
2023-05-23T09:16:07.326Z,100343.00
2023-05-23T09:18:46.955Z,100360.00
2023-05-23T09:21:17.382Z,100366.00
2023-05-23T09:24:15.340Z,100367.00
2023-05-23T09:26:44.006Z,100362.00
2023-05-23T09:29:12.715Z,100367.00
2023-05-23T09:31:43.121Z,100360.00
2023-05-23T09:34:11.800Z,100368.00
2023-05-23T09:36:44.426Z,100372.00
2023-05-23T09:39:13.718Z,100380.00
2023-05-23T09:41:41.932Z,100378.00
2023-05-23T09:44:11.098Z,100376.00
2023-05-23T09:46:39.503Z,100377.00
2023-05-23T09:49:18.483Z,100385.00
2023-05-23T09:51:59.538Z,100383.00
2023-05-23T09:54:28.079Z,100384.00
2023-05-23T09:56:57.405Z,100385.00
2023-05-23T09:59:30.007Z,100390.00
2023-05-23T10:01:58.920Z,100393.00
2023-05-23T10:04:33.453Z,100399.00
2023-05-23T10:07:28.081Z,100398.00
2023-05-23T10:09:59.978Z,100400.00
2023-05-23T10:12:40.388Z,100407.00
2023-05-23T10:15:10.949Z,100415.00
2023-05-23T10:18:02.389Z,100417.00
2023-05-23T10:20:32.169Z,100418.00
2023-05-23T10:23:01.886Z,100424.00
2023-05-23T10:25:30.482Z,100423.00
2023-05-23T10:28:03.234Z,100423.00
2023-05-23T10:30:32.238Z,100428.00
2023-05-23T10:33:00.966Z,100432.00
2023-05-23T10:35:39.662Z,100442.00
2023-05-23T10:38:45.500Z,100444.00
2023-05-23T10:41:26.785Z,100448.00
2023-05-23T10:44:29.652Z,100455.00
2023-05-23T10:47:01.621Z,100455.00
2023-05-23T10:49:40.674Z,100462.00
2023-05-23T10:52:09.948Z,100454.00
2023-05-23T10:54:43.135Z,100460.00
2023-05-23T10:57:12.942Z,100459.00
2023-05-23T10:59:41.431Z,100470.00
2023-05-23T11:02:17.208Z,100471.00
2023-05-23T11:04:46.298Z,100475.00
2023-05-23T11:07:33.992Z,100468.00
2023-05-23T11:10:15.697Z,100468.00
2023-05-23T11:12:45.109Z,100470.00
2023-05-23T11:15:20.659Z,100474.00
2023-05-23T11:17:57.069Z,100480.00
2023-05-23T11:20:30.976Z,100481.00
2023-05-23T11:23:03.851Z,100482.00
2023-05-23T11:25:51.174Z,100491.00
2023-05-23T11:28:19.963Z,100489.00
2023-05-23T11:30:51.911Z,100489.00
2023-05-23T11:33:21.226Z,100501.00
2023-05-23T11:35:51.610Z,100502.00
2023-05-23T11:38:19.483Z,100509.00
2023-05-23T11:40:48.912Z,100513.00
2023-05-23T11:43:18.313Z,100508.00
2023-05-23T11:45:49.201Z,100508.00
2023-05-23T11:48:18.270Z,100519.00
2023-05-23T11:50:56.081Z,100524.00
2023-05-23T11:53:26.978Z,100525.00
2023-05-23T11:55:58.636Z,100522.00
2023-05-23T11:58:38.505Z,100519.00
2023-05-23T12:01:08.441Z,100527.00
2023-05-23T12:03:47.588Z,100532.00
2023-05-23T12:06:24.989Z,100526.00
2023-05-23T12:08:53.904Z,100538.00
2023-05-23T12:11:24.097Z,100540.00
2023-05-23T12:13:54.269Z,100545.00
2023-05-23T12:16:22.727Z,100541.00
2023-05-23T12:18:50.827Z,100524.00
2023-05-23T12:21:18.876Z,100533.00
2023-05-23T12:23:47.602Z,100537.00
2023-05-23T12:26:18.943Z,100536.00
2023-05-23T12:28:47.014Z,100536.00
2023-05-23T12:31:18.498Z,100540.00
2023-05-23T12:33:50.271Z,100545.00
2023-05-23T12:36:27.502Z,100556.00
2023-05-23T12:39:04.004Z,100571.00
2023-05-23T12:41:34.015Z,100562.00
2023-05-23T12:44:07.981Z,100564.00
2023-05-23T12:46:36.174Z,100567.00
2023-05-23T12:49:04.585Z,100580.00
2023-05-23T12:51:33.619Z,100577.00
2023-05-23T12:54:03.196Z,100583.00
2023-05-23T12:56:32.165Z,100590.00
2023-05-23T12:59:02.703Z,100591.00
2023-05-23T13:01:32.027Z,100590.00
2023-05-23T13:04:00.476Z,100593.00
2023-05-23T13:06:29.191Z,100595.00
2023-05-23T13:08:58.473Z,100599.00
2023-05-23T13:11:30.558Z,100603.00
2023-05-23T13:13:59.590Z,100598.00
2023-05-23T13:16:28.073Z,100607.00
2023-05-23T13:18:56.703Z,100607.00
2023-05-23T13:21:25.111Z,100612.00
2023-05-23T13:23:53.283Z,100605.00
2023-05-23T13:26:22.316Z,100608.00
2023-05-23T13:28:50.595Z,100613.00
2023-05-23T13:31:18.646Z,100631.00
2023-05-23T13:33:46.711Z,100629.00
2023-05-23T13:36:14.768Z,100629.00
2023-05-23T13:38:42.584Z,100629.00
2023-05-23T13:41:10.772Z,100631.00
2023-05-23T13:43:38.689Z,100626.00
2023-05-23T13:46:06.678Z,100631.00
2023-05-23T13:48:35.208Z,100630.00
2023-05-23T13:51:04.528Z,100627.00
2023-05-23T13:53:33.178Z,100624.00
2023-05-23T13:56:01.528Z,100630.00
2023-05-23T13:58:31.972Z,100643.00
2023-05-23T14:01:01.003Z,100639.00
2023-05-23T14:03:29.786Z,100647.00
2023-05-23T14:05:58.493Z,100646.00
2023-05-23T14:08:27.075Z,100648.00
2023-05-23T14:10:54.988Z,100649.00
2023-05-23T14:13:27.238Z,100656.00
2023-05-23T14:16:00.373Z,100655.00
2023-05-23T14:18:29.693Z,100660.00
2023-05-23T14:20:58.719Z,100668.00
2023-05-23T14:23:26.854Z,100661.00
2023-05-23T14:25:56.113Z,100667.00
2023-05-23T14:28:25.640Z,100667.00
2023-05-23T14:30:54.188Z,100662.00
2023-05-23T14:33:23.353Z,100669.00
2023-05-23T14:35:51.782Z,100673.00
2023-05-23T14:38:20.441Z,100675.00
2023-05-23T14:40:49.264Z,100674.00
2023-05-23T14:43:17.312Z,100670.00
2023-05-23T14:45:45.483Z,100682.00
2023-05-23T14:48:14.304Z,100680.00
2023-05-23T14:50:43.279Z,100677.00
2023-05-23T14:53:11.447Z,100679.00
2023-05-23T14:55:39.804Z,100682.00
2023-05-23T14:58:07.910Z,100680.00
2023-05-23T15:00:36.252Z,100682.00
2023-05-23T15:03:05.303Z,100673.00
2023-05-23T15:05:33.876Z,100674.00
2023-05-23T15:08:02.255Z,100679.00
2023-05-23T15:10:30.554Z,100680.00
2023-05-23T15:12:59.139Z,100677.00
2023-05-23T15:15:34.394Z,100680.00
2023-05-23T15:18:06.999Z,100674.00
2023-05-23T15:20:35.506Z,100673.00
2023-05-23T15:23:05.612Z,100668.00
2023-05-23T15:25:47.152Z,100667.00
2023-05-23T15:28:17.184Z,100669.00
2023-05-23T15:30:45.614Z,100664.00
2023-05-23T15:33:13.865Z,100668.00
2023-05-23T15:35:43.811Z,100663.00
2023-05-23T15:38:14.077Z,100661.00
2023-05-23T15:40:43.086Z,100676.00
2023-05-23T15:43:11.674Z,100673.00
2023-05-23T15:45:40.033Z,100680.00
2023-05-23T15:48:08.240Z,100687.00
2023-05-23T15:50:36.546Z,100679.00
2023-05-23T15:53:05.131Z,100678.00
2023-05-23T15:55:39.794Z,100684.00
2023-05-23T15:58:10.402Z,100679.00
2023-05-23T16:00:38.739Z,100684.00
2023-05-23T16:03:07.168Z,100675.00
2023-05-23T16:05:35.309Z,100672.00
2023-05-23T16:08:03.598Z,100676.00
2023-05-23T16:10:31.585Z,100676.00
2023-05-23T16:12:59.854Z,100675.00
2023-05-23T16:15:30.992Z,100678.00
2023-05-23T16:18:00.285Z,100677.00
2023-05-23T16:20:29.041Z,100681.00
2023-05-23T16:22:57.433Z,100678.00
2023-05-23T16:25:25.791Z,100678.00
2023-05-23T16:27:53.855Z,100671.00
2023-05-23T16:30:22.342Z,100672.00
2023-05-23T16:32:51.168Z,100678.00
2023-05-23T16:35:19.095Z,100672.00
2023-05-23T16:37:47.142Z,100696.00
2023-05-23T16:40:15.426Z,100693.00
2023-05-23T16:42:45.252Z,100691.00
2023-05-23T16:45:13.218Z,100702.00
2023-05-23T16:47:42.178Z,100699.00
2023-05-23T16:50:10.764Z,100702.00
2023-05-23T16:52:40.795Z,100703.00
2023-05-23T16:55:09.431Z,100706.00
2023-05-23T16:57:37.923Z,100707.00
2023-05-23T17:00:06.397Z,100701.00
2023-05-23T17:02:34.764Z,100701.00
2023-05-23T17:05:03.790Z,100698.00
2023-05-23T17:07:33.281Z,100709.00
2023-05-23T17:10:01.550Z,100707.00
2023-05-23T17:12:29.834Z,100708.00
2023-05-23T17:14:58.124Z,100710.00
2023-05-23T17:17:26.268Z,100723.00
2023-05-23T17:19:55.539Z,100719.00
2023-05-23T17:22:23.832Z,100715.00
2023-05-23T17:24:51.948Z,100723.00
2023-05-23T17:27:19.922Z,100722.00
2023-05-23T17:29:48.139Z,100715.00
2023-05-23T17:32:15.949Z,100718.00
2023-05-23T17:34:44.389Z,100731.00
2023-05-23T17:37:12.773Z,100721.00
2023-05-23T17:39:41.832Z,100727.00
2023-05-23T17:42:10.255Z,100746.00
2023-05-23T17:44:38.701Z,100744.00
2023-05-23T17:47:09.110Z,100737.00
2023-05-23T17:49:39.164Z,100745.00
2023-05-23T17:52:10.610Z,100741.00
2023-05-23T17:54:39.058Z,100748.00
2023-05-23T17:57:08.496Z,100748.00
2023-05-23T17:59:37.301Z,100746.00
2023-05-23T18:02:06.198Z,100745.00
2023-05-23T18:04:34.386Z,100746.00
2023-05-23T18:07:02.677Z,100757.00
2023-05-23T18:09:30.803Z,100756.00
2023-05-23T18:11:59.933Z,100755.00
2023-05-23T18:14:28.005Z,100752.00
2023-05-23T18:16:56.272Z,100762.00
2023-05-23T18:19:24.738Z,100767.00
2023-05-23T18:21:52.787Z,100770.00
2023-05-23T18:24:20.919Z,100772.00
2023-05-23T18:26:49.485Z,100781.00
2023-05-23T18:29:17.747Z,100782.00
2023-05-23T18:31:46.982Z,100792.00
2023-05-23T18:34:15.328Z,100786.00
2023-05-23T18:36:43.585Z,100791.00
2023-05-23T18:39:11.923Z,100791.00
2023-05-23T18:41:40.108Z,100803.00
2023-05-23T18:44:08.928Z,100805.00
2023-05-23T18:46:37.540Z,100808.00
2023-05-23T18:49:06.309Z,100801.00
2023-05-23T18:51:35.618Z,100812.00
2023-05-23T18:54:04.450Z,100813.00
2023-05-23T18:56:32.897Z,100801.00
2023-05-23T18:59:01.258Z,100815.00
2023-05-23T19:01:29.792Z,100816.00
2023-05-23T19:03:58.421Z,100819.00
2023-05-23T19:06:27.972Z,100831.00
2023-05-23T19:08:56.264Z,100829.00
2023-05-23T19:11:24.805Z,100831.00
2023-05-23T19:13:52.833Z,100832.00
2023-05-23T19:16:21.634Z,100836.00
2023-05-23T19:18:49.834Z,100848.00
2023-05-23T19:21:18.030Z,100853.00
2023-05-23T19:23:46.211Z,100852.00
2023-05-23T19:26:14.585Z,100854.00
2023-05-23T19:28:42.667Z,100863.00
2023-05-23T19:31:12.642Z,100866.00
2023-05-23T19:33:41.393Z,100866.00
2023-05-23T19:36:09.785Z,100872.00
2023-05-23T19:38:38.074Z,100864.00
2023-05-23T19:41:07.068Z,100864.00
2023-05-23T19:43:35.292Z,100870.00
2023-05-23T19:46:03.924Z,100866.00
2023-05-23T19:48:32.876Z,100877.00
2023-05-23T19:51:01.216Z,100874.00
2023-05-23T19:53:29.314Z,100873.00
2023-05-23T19:55:58.049Z,100879.00
2023-05-23T19:58:26.178Z,100880.00
2023-05-23T20:00:54.777Z,100881.00
2023-05-23T20:03:22.840Z,100891.00
2023-05-23T20:05:50.786Z,100888.00
2023-05-23T20:08:18.745Z,100895.00
2023-05-23T20:10:47.392Z,100902.00
2023-05-23T20:13:15.583Z,100904.00
2023-05-23T20:15:43.741Z,100907.00
2023-05-23T20:18:12.099Z,100906.00
2023-05-23T20:20:40.414Z,100906.00
2023-05-23T20:23:09.212Z,100914.00
2023-05-23T20:25:37.376Z,100920.00
2023-05-23T20:28:06.321Z,100916.00
2023-05-23T20:30:34.726Z,100920.00
2023-05-23T20:33:05.760Z,100920.00
2023-05-23T20:35:33.834Z,100927.00
2023-05-23T20:38:02.877Z,100923.00
2023-05-23T20:40:33.800Z,100934.00
2023-05-23T20:43:06.011Z,100939.00
2023-05-23T20:45:34.918Z,100935.00
2023-05-23T20:48:03.348Z,100933.00
2023-05-23T20:50:32.713Z,100932.00
2023-05-23T20:53:02.547Z,100925.00
2023-05-23T20:55:30.831Z,100925.00
2023-05-23T20:57:59.401Z,100924.00
2023-05-23T21:00:28.065Z,100926.00
2023-05-23T21:02:56.408Z,100933.00
2023-05-23T21:05:24.706Z,100933.00
2023-05-23T21:07:52.594Z,100937.00
2023-05-23T21:10:20.845Z,100933.00
2023-05-23T21:12:50.980Z,100937.00
2023-05-23T21:15:19.313Z,100943.00
2023-05-23T21:17:47.573Z,100941.00
2023-05-23T21:20:16.410Z,100944.00
2023-05-23T21:22:44.276Z,100946.00
2023-05-23T21:25:12.419Z,100944.00
2023-05-23T21:27:40.857Z,100946.00
2023-05-23T21:30:09.639Z,100949.00
2023-05-23T21:32:38.253Z,100945.00
2023-05-23T21:35:06.780Z,100945.00
2023-05-23T21:37:35.107Z,100936.00
2023-05-23T21:40:03.348Z,100943.00
2023-05-23T21:42:31.316Z,100940.00
2023-05-23T21:44:59.594Z,100945.00
2023-05-23T21:47:28.113Z,100948.00
2023-05-23T21:49:56.334Z,100947.00
2023-05-23T21:52:24.390Z,100946.00
2023-05-23T21:54:52.310Z,100951.00
2023-05-23T21:57:20.333Z,100954.00
2023-05-23T21:59:48.230Z,100951.00
2023-05-23T22:02:16.251Z,100945.00
2023-05-23T22:04:46.484Z,100941.00
2023-05-23T22:07:15.274Z,100952.00
2023-05-23T22:09:43.213Z,100948.00
2023-05-23T22:12:12.286Z,100946.00
2023-05-23T22:14:40.514Z,100950.00
2023-05-23T22:17:09.145Z,100956.00
2023-05-23T22:19:37.808Z,100950.00
2023-05-23T22:22:08.725Z,100947.00
2023-05-23T22:24:37.224Z,100944.00
2023-05-23T22:27:08.400Z,100957.00
2023-05-23T22:29:37.143Z,100952.00
2023-05-23T22:32:05.927Z,100950.00
2023-05-23T22:34:34.235Z,100955.00
2023-05-23T22:37:02.694Z,100952.00
2023-05-23T22:39:31.462Z,100954.00
2023-05-23T22:41:59.799Z,100958.00
2023-05-23T22:44:28.032Z,100961.00
2023-05-23T22:46:58.992Z,100967.00
2023-05-23T22:49:30.670Z,100960.00
2023-05-23T22:51:59.560Z,100965.00
2023-05-23T22:54:28.070Z,100963.00
2023-05-23T22:56:56.343Z,100952.00
2023-05-23T22:59:24.376Z,100960.00
2023-05-23T23:01:52.434Z,100962.00
2023-05-23T23:04:23.843Z,100953.00
2023-05-23T23:06:54.091Z,100954.00
2023-05-23T23:09:22.262Z,100954.00
2023-05-23T23:11:50.295Z,100961.00
2023-05-23T23:14:18.283Z,100954.00
2023-05-23T23:16:50.086Z,100957.00
2023-05-23T23:19:18.423Z,100949.00
2023-05-23T23:21:47.156Z,100960.00
2023-05-23T23:24:15.387Z,100958.00
2023-05-23T23:26:43.280Z,100962.00
2023-05-23T23:29:11.465Z,100965.00
2023-05-23T23:31:39.706Z,100967.00
2023-05-23T23:34:08.131Z,100967.00
2023-05-23T23:36:39.961Z,100964.00
2023-05-23T23:39:08.224Z,100974.00
2023-05-23T23:41:37.138Z,100974.00
2023-05-23T23:44:05.823Z,100978.00
2023-05-23T23:46:35.390Z,100972.00
2023-05-23T23:49:03.483Z,100977.00
2023-05-23T23:51:33.526Z,100965.00
2023-05-23T23:54:02.522Z,100970.00
2023-05-23T23:56:31.652Z,100972.00
2023-05-23T23:58:59.702Z,100975.00
